Time;durP1;ratioP1;P1;durP2;ratioP2;P2;SDS_P1;SDS_P2;PMS_P1;PMS_P2;Temp;Humidity;BMP_temperature;BMP_pressure;BME280_temperature;BME280_humidity;BME280_pressure;Samples;Min_cycle;Max_cycle;Signal;HPM_P1;HPM_P2
2023/08/03 00:00:48;;;;;;;4.57;2.40;;;;;;;15.91;100.00;98862.50;5034677;28;20079;-88
2023/08/03 00:03:16;;;;;;;5.70;2.53;;;;;;;15.71;100.00;98821.13;5016433;28;20029;-88
2023/08/03 00:05:44;;;;;;;4.35;2.47;;;;;;;15.77;100.00;98836.50;5034135;28;20799;-89
2023/08/03 00:08:09;;;;;;;3.22;2.08;;;;;;;15.92;100.00;98864.19;5034282;28;20049;-87
2023/08/03 00:10:35;;;;;;;3.25;2.28;;;;;;;15.77;100.00;98840.00;5033860;28;20075;-87
2023/08/03 00:13:00;;;;;;;3.13;2.22;;;;;;;15.93;100.00;98867.69;5016637;28;20572;-87
2023/08/03 00:15:26;;;;;;;4.95;2.47;;;;;;;15.87;100.00;98864.69;5016053;28;20029;-88
2023/08/03 00:17:53;;;;;;;5.30;3.03;;;;;;;16.00;100.00;98869.47;5016435;28;20040;-88
2023/08/03 00:20:19;;;;;;;6.35;3.53;;;;;;;15.93;100.00;98862.31;5015526;28;20041;-87
2023/08/03 00:22:46;;;;;;;6.10;3.05;;;;;;;16.00;100.00;98879.34;5015668;28;20036;-88
2023/08/03 00:25:14;;;;;;;8.50;4.00;;;;;;;16.03;100.00;98881.66;5033413;28;20026;-87
2023/08/03 00:27:39;;;;;;;6.80;4.15;;;;;;;15.81;100.00;98861.91;5033803;28;20028;-88
2023/08/03 00:30:07;;;;;;;8.02;4.03;;;;;;;15.94;100.00;98870.19;5016128;28;20461;-87
2023/08/03 00:32:32;;;;;;;11.45;4.55;;;;;;;15.96;100.00;98878.88;5015900;28;20028;-88
2023/08/03 00:35:00;;;;;;;7.80;4.90;;;;;;;15.97;100.00;98887.75;5015257;28;20045;-88
2023/08/03 00:37:26;;;;;;;7.28;5.10;;;;;;;15.96;100.00;98891.47;5033520;28;20104;-88
2023/08/03 00:39:51;;;;;;;10.07;6.13;;;;;;;16.05;100.00;98911.84;5015422;28;20568;-88
2023/08/03 00:42:17;;;;;;;18.92;6.65;;;;;;;16.12;100.00;98913.63;5033616;28;20037;-88
2023/08/03 00:44:45;;;;;;;13.75;6.60;;;;;;;15.97;100.00;98911.88;5015726;28;20388;-87
2023/08/03 00:47:11;;;;;;;12.80;6.47;;;;;;;15.90;100.00;98914.47;5033716;28;20174;-87
2023/08/03 00:49:38;;;;;;;9.55;6.30;;;;;;;15.86;100.00;98913.16;5032986;28;20029;-86
2023/08/03 00:52:04;;;;;;;14.20;7.07;;;;;;;15.84;100.00;98915.16;5015489;28;20028;-86
2023/08/03 00:54:32;;;;;;;13.57;6.93;;;;;;;15.93;100.00;98934.72;5032518;28;20026;-86
2023/08/03 00:57:01;;;;;;;18.23;7.65;;;;;;;15.95;100.00;98940.75;5033153;28;20037;-85
2023/08/03 00:59:26;;;;;;;17.60;8.35;;;;;;;15.96;100.00;98937.88;5015305;28;20071;-86
2023/08/03 01:01:51;;;;;;;14.75;8.32;;;;;;;15.94;100.00;98945.25;5015521;28;20111;-85
2023/08/03 01:04:17;;;;;;;18.50;8.07;;;;;;;15.95;100.00;98960.34;5032787;28;20021;-85
2023/08/03 01:06:42;;;;;;;19.48;8.40;;;;;;;15.95;100.00;98957.66;5033076;28;20036;-85
2023/08/03 01:09:11;;;;;;;15.20;8.55;;;;;;;15.90;100.00;98946.63;5032603;28;20025;-85
2023/08/03 01:11:37;;;;;;;16.70;9.23;;;;;;;15.87;100.00;98946.97;5015181;28;20370;-85
2023/08/03 01:14:03;;;;;;;13.57;8.82;;;;;;;15.93;100.00;98959.69;5032895;28;20100;-85
2023/08/03 01:16:31;;;;;;;18.08;8.82;;;;;;;15.97;100.00;98969.06;5015292;28;20029;-85
2023/08/03 01:19:01;;;;;;;14.18;8.63;;;;;;;15.98;100.00;98975.25;5032558;28;20109;-85
2023/08/03 01:21:31;;;;;;;13.13;8.00;;;;;;;15.86;100.00;98964.09;5032875;28;20033;-85
2023/08/03 01:23:57;;;;;;;10.95;7.20;;;;;;;15.92;100.00;98960.69;5032141;28;20029;-85
2023/08/03 01:26:24;;;;;;;15.45;6.97;;;;;;;15.93;100.00;98977.63;5032820;28;20021;-85
2023/08/03 01:28:50;;;;;;;10.05;6.75;;;;;;;16.02;100.00;99000.69;5032813;28;20423;-86
2023/08/03 01:31:19;;;;;;;9.68;7.07;;;;;;;15.97;100.00;98987.81;5032857;28;20087;-85
2023/08/03 01:33:45;;;;;;;;;;;;;;;16.20;100.00;99006.59;5015579;28;20144;-86
2023/08/03 01:36:10;;;;;;;9.50;6.20;;;;;;;16.01;100.00;98996.34;5018658;28;19932;-85
2023/08/03 01:38:35;;;;;;;10.25;5.65;;;;;;;15.98;100.00;99013.63;5018456;28;20032;-86
2023/08/03 01:41:05;;;;;;;11.70;5.63;;;;;;;16.01;100.00;98999.84;5019363;28;20029;-86
2023/08/03 01:43:31;;;;;;;10.32;5.45;;;;;;;15.98;100.00;99010.94;5018948;28;20055;-85
2023/08/03 01:45:56;;;;;;;9.50;5.30;;;;;;;15.93;100.00;99002.56;5019268;28;20492;-86
2023/08/03 01:48:21;;;;;;;9.20;5.07;;;;;;;15.88;100.00;98997.75;5018935;28;20116;-87
2023/08/03 01:50:47;;;;;;;9.90;5.03;;;;;;;15.96;100.00;99004.06;5037228;28;20099;-86
2023/08/03 01:53:16;;;;;;;7.65;4.40;;;;;;;15.75;100.00;98968.00;5020496;28;20026;-87
2023/08/03 01:55:45;;;;;;;;;;;;;;;16.23;100.00;99018.81;5020222;28;20048;-86
2023/08/03 01:58:12;;;;;;;9.13;4.32;;;;;;;16.09;100.00;99021.25;5037715;28;20319;-88
2023/08/03 02:00:40;;;;;;;9.68;3.85;;;;;;;16.02;100.00;99014.09;5019724;28;20548;-88
2023/08/03 02:03:06;;;;;;;8.18;4.13;;;;;;;16.00;100.00;99019.66;5019596;28;20025;-86
2023/08/03 02:05:31;;;;;;;7.40;3.50;;;;;;;15.97;100.00;99011.97;5019065;28;20025;-87
2023/08/03 02:07:57;;;;;;;7.85;3.35;;;;;;;15.91;100.00;99015.31;5019159;28;20025;-87
2023/08/03 02:10:23;;;;;;;11.10;4.03;;;;;;;15.97;100.00;99027.19;5036561;28;20104;-87
2023/08/03 02:12:49;;;;;;;13.20;4.85;;;;;;;16.03;100.00;99024.66;5018880;28;20060;-87
2023/08/03 02:15:15;;;;;;;14.90;5.80;;;;;;;15.81;100.00;98993.28;5018595;28;20049;-88
2023/08/03 02:17:41;;;;;;;14.20;5.20;;;;;;;15.41;100.00;98928.97;5018710;28;20041;-87
2023/08/03 02:20:08;;;;;;;13.70;5.53;;;;;;;15.96;100.00;99023.69;5018802;28;20068;-88
2023/08/03 02:22:34;;;;;;;19.40;6.10;;;;;;;15.91;100.00;99012.63;5018624;28;20037;-88
2023/08/03 02:24:59;;;;;;;16.25;5.85;;;;;;;16.00;100.00;99021.47;5018129;28;20025;-88
2023/08/03 02:27:25;;;;;;;19.42;6.60;;;;;;;15.77;100.00;98994.66;5036174;28;20369;-88
2023/08/03 02:29:50;;;;;;;20.42;7.10;;;;;;;15.70;100.00;98973.03;5018540;28;20112;-87
2023/08/03 02:32:15;;;;;;;15.70;6.00;;;;;;;15.93;100.00;99009.78;5018376;28;20040;-86
2023/08/03 02:34:41;;;;;;;19.45;6.13;;;;;;;15.96;100.00;99015.63;5036046;28;20053;-88
2023/08/03 02:37:09;;;;;;;19.05;6.40;;;;;;;15.92;100.00;99014.31;5018389;28;20074;-88
2023/08/03 02:39:34;;;;;;;18.33;6.32;;;;;;;15.91;100.00;99026.03;5018117;28;20029;-88
2023/08/03 02:41:59;;;;;;;20.58;8.10;;;;;;;15.88;100.00;99011.16;5018272;28;20029;-88
2023/08/03 02:44:25;;;;;;;22.15;6.68;;;;;;;15.91;100.00;99026.03;5018019;28;20032;-88
2023/08/03 02:46:52;;;;;;;24.02;7.18;;;;;;;15.90;100.00;99014.50;5017227;28;20048;-89
2023/08/03 02:49:18;;;;;;;21.52;7.00;;;;;;;15.87;100.00;99009.47;5035735;28;20025;-88
2023/08/03 02:51:43;;;;;;;20.98;6.47;;;;;;;15.78;100.00;98996.31;5018201;28;20036;-87
2023/08/03 02:54:11;;;;;;;18.63;6.90;;;;;;;15.80;100.00;98991.63;5018150;28;20028;-88
2023/08/03 02:56:37;;;;;;;21.80;6.55;;;;;;;15.87;100.00;99019.38;5035902;28;20030;-89
2023/08/03 02:59:02;;;;;;;18.52;6.00;;;;;;;15.90;100.00;99019.84;5017929;28;20025;-89
2023/08/03 03:01:27;;;;;;;20.13;6.47;;;;;;;15.73;100.00;99002.19;5017840;28;20056;-90
2023/08/03 03:03:53;;;;;;;20.27;6.53;;;;;;;15.72;100.00;99002.38;5017622;28;20032;-88
2023/08/03 03:06:18;;;;;;;21.02;6.63;;;;;;;15.76;100.00;99003.69;5018017;28;20026;-89
2023/08/03 03:08:43;;;;;;;17.65;5.80;;;;;;;15.89;100.00;99036.97;5017477;28;20067;-89
2023/08/03 03:11:09;;;;;;;17.02;5.80;;;;;;;15.28;100.00;98954.63;5017760;28;20013;-89
2023/08/03 03:13:37;;;;;;;17.60;5.72;;;;;;;15.59;100.00;99030.53;5017610;28;20031;-88
2023/08/03 03:16:05;;;;;;;17.27;6.15;;;;;;;15.80;100.00;99053.25;5017278;28;20033;-88
2023/08/03 03:18:31;;;;;;;19.33;6.13;;;;;;;15.86;100.00;99057.94;5017689;28;20052;-90
2023/08/03 03:20:56;;;;;;;17.05;6.28;;;;;;;15.65;100.00;99018.28;5035492;28;20057;-88
2023/08/03 03:23:26;;;;;;;16.40;5.15;;;;;;;15.74;100.00;99040.56;5034759;28;20033;-88
2023/08/03 03:25:52;;;;;;;17.08;5.68;;;;;;;15.79;100.00;99062.28;5035313;28;20022;-88
2023/08/03 03:28:19;;;;;;;16.65;5.50;;;;;;;15.71;100.00;99049.78;5017342;28;20036;-88
2023/08/03 03:30:45;;;;;;;16.85;5.85;;;;;;;15.71;100.00;99048.97;5017384;28;20048;-87
2023/08/03 03:33:12;;;;;;;17.02;5.72;;;;;;;15.43;100.00;99011.84;5017373;28;20075;-87
2023/08/03 03:35:38;;;;;;;16.60;5.22;;;;;;;15.74;100.00;99064.69;5016940;28;20050;-87
2023/08/03 03:38:05;;;;;;;12.90;5.07;;;;;;;15.72;100.00;99067.53;5017191;28;20048;-89
2023/08/03 03:40:31;;;;;;;17.33;5.78;;;;;;;15.63;100.00;99053.28;5016889;28;20033;-89
2023/08/03 03:42:56;;;;;;;14.65;5.55;;;;;;;15.77;100.00;99083.94;5034606;28;20035;-88
2023/08/03 03:45:24;;;;;;;13.45;5.68;;;;;;;15.75;100.00;99080.59;5016823;28;20120;-88
2023/08/03 03:47:49;;;;;;;16.60;5.40;;;;;;;15.44;100.00;99046.50;5017037;28;20504;-88
2023/08/03 03:50:14;;;;;;;16.23;5.45;;;;;;;15.49;100.00;99063.91;5017078;28;20025;-88
2023/08/03 03:52:42;;;;;;;16.33;5.80;;;;;;;15.63;100.00;99072.06;5017186;28;20037;-89
2023/08/03 03:55:08;;;;;;;12.55;4.28;;;;;;;15.63;100.00;99087.31;5034393;28;20104;-88
2023/08/03 03:57:36;;;;;;;12.60;5.20;;;;;;;15.71;100.00;99106.06;5016451;28;20531;-89
2023/08/03 04:00:04;;;;;;;14.00;4.60;;;;;;;15.57;100.00;99093.34;5017151;28;20057;-87
2023/08/03 04:02:32;;;;;;;12.45;4.82;;;;;;;15.22;100.00;99042.69;5034629;28;20096;-89
2023/08/03 04:04:59;;;;;;;11.57;4.80;;;;;;;15.69;100.00;99123.34;5034501;28;20028;-89
2023/08/03 04:07:27;;;;;;;12.55;4.70;;;;;;;15.48;100.00;99094.38;5016218;28;20113;-89
2023/08/03 04:09:52;;;;;;;12.18;4.85;;;;;;;15.52;100.00;99091.19;5033946;28;20026;-89
2023/08/03 04:12:18;;;;;;;17.92;4.97;;;;;;;15.64;100.00;99126.47;5016540;28;20028;-88
2023/08/03 04:14:46;;;;;;;12.90;5.00;;;;;;;15.57;100.00;99114.78;5016752;28;20452;-88
2023/08/03 04:17:13;;;;;;;13.50;5.05;;;;;;;15.65;100.00;99120.97;5016338;28;20045;-88
2023/08/03 04:19:39;;;;;;;11.48;5.00;;;;;;;15.65;100.00;99134.38;5034332;28;20021;-88
2023/08/03 04:22:05;;;;;;;15.20;4.75;;;;;;;15.69;100.00;99134.06;5016378;28;20083;-88
2023/08/03 04:24:32;;;;;;;10.75;4.80;;;;;;;15.73;100.00;99148.78;5016038;28;20128;-88
2023/08/03 04:26:58;;;;;;;11.68;4.72;;;;;;;15.57;100.00;99128.19;5016107;28;20051;-89
2023/08/03 04:29:23;;;;;;;14.70;4.90;;;;;;;15.60;100.00;99150.13;5033907;28;20108;-88
2023/08/03 04:31:51;;;;;;;12.05;4.80;;;;;;;15.70;100.00;99158.00;5016388;28;20036;-88
2023/08/03 04:34:19;;;;;;;16.92;5.50;;;;;;;15.60;100.00;99147.44;5033873;28;20094;-89
2023/08/03 04:36:47;;;;;;;11.15;4.68;;;;;;;15.60;100.00;99158.16;5016090;28;20050;-89
2023/08/03 04:39:15;;;;;;;10.07;4.30;;;;;;;15.58;100.00;99165.53;5033406;28;20025;-89
2023/08/03 04:41:41;;;;;;;10.63;5.13;;;;;;;15.60;100.00;99179.59;5015974;28;20108;-88
2023/08/03 04:44:09;;;;;;;7.43;3.63;;;;;;;15.66;100.00;99186.94;5033607;28;20105;-87
2023/08/03 04:46:34;;;;;;;7.93;4.05;;;;;;;15.62;100.00;99184.81;5016074;28;20598;-89
2023/08/03 04:48:59;;;;;;;5.88;3.40;;;;;;;15.61;100.00;99191.97;5012252;28;20116;-88
2023/08/03 04:51:25;;;;;;;6.32;3.70;;;;;;;15.66;100.00;99197.66;4996148;28;20446;-87
2023/08/03 04:53:53;;;;;;;7.55;3.78;;;;;;;15.52;100.00;99170.72;4995859;28;20069;-86
2023/08/03 04:56:20;;;;;;;5.97;3.30;;;;;;;15.59;100.00;99187.81;5013756;28;20466;-87
2023/08/03 04:58:46;;;;;;;5.55;3.55;;;;;;;15.66;100.00;99203.03;4996091;28;20168;-88
2023/08/03 05:01:11;;;;;;;7.10;3.53;;;;;;;15.53;100.00;99183.13;5013801;28;20109;-88
2023/08/03 05:03:37;;;;;;;6.80;3.22;;;;;;;15.72;100.00;99211.44;4995996;28;20034;-88
2023/08/03 05:06:02;;;;;;;6.93;3.00;;;;;;;15.67;100.00;99214.59;4996178;28;20057;-87
2023/08/03 05:08:28;;;;;;;4.75;3.25;;;;;;;15.58;100.00;99192.31;4995469;28;20032;-89
2023/08/03 05:10:53;;;;;;;6.15;2.78;;;;;;;15.71;100.00;99215.97;4995481;28;20029;-88
2023/08/03 05:13:18;;;;;;;5.90;3.67;;;;;;;15.71;100.00;99232.06;4996013;28;20041;-88
2023/08/03 05:15:44;;;;;;;6.60;3.00;;;;;;;15.44;100.00;99188.50;4995992;28;20461;-87
2023/08/03 05:18:10;;;;;;;6.43;2.92;;;;;;;15.67;100.00;99215.44;5012117;28;20397;-87
2023/08/03 05:20:36;;;;;;;8.90;3.03;;;;;;;15.66;100.00;99227.16;4995949;28;20079;-87
2023/08/03 05:23:03;;;;;;;8.30;3.03;;;;;;;15.69;100.00;99235.91;4995783;28;20050;-88
2023/08/03 05:25:31;;;;;;;8.77;3.35;;;;;;;15.73;100.00;99250.63;5011663;28;20026;-87
2023/08/03 05:27:57;;;;;;;8.68;3.38;;;;;;;15.52;100.00;99216.28;4995797;28;20137;-87
2023/08/03 05:30:25;;;;;;;8.60;3.17;;;;;;;15.59;100.00;99228.84;4995757;28;20513;-87
2023/08/03 05:32:51;;;;;;;10.13;3.42;;;;;;;15.61;100.00;99237.53;4995836;28;20037;-88
2023/08/03 05:35:16;;;;;;;9.13;3.50;;;;;;;15.64;100.00;99231.00;5011829;28;20125;-88
2023/08/03 05:37:42;;;;;;;8.75;3.35;;;;;;;15.63;100.00;99243.56;4995794;28;20097;-87
2023/08/03 05:40:07;;;;;;;10.93;3.67;;;;;;;15.84;100.00;99272.56;5012892;28;20116;-88
2023/08/03 05:42:38;;;;;;;8.90;3.20;;;;;;;15.78;100.00;99261.69;5013378;28;20367;-88
2023/08/03 05:45:31;;;;;;;8.25;3.20;;;;;;;15.81;100.00;99270.22;4995714;28;20033;-88
2023/08/03 05:47:58;;;;;;;15.57;3.30;;;;;;;15.82;100.00;99279.09;4998473;28;20037;-88
2023/08/03 05:50:24;;;;;;;10.52;3.97;;;;;;;15.71;100.00;99274.09;5015566;28;20435;-87
2023/08/03 05:52:50;;;;;;;10.60;3.40;;;;;;;15.85;100.00;99286.81;5033196;28;20084;-87
2023/08/03 05:55:16;;;;;;;9.30;3.17;;;;;;;15.86;100.00;99296.53;5014981;28;20080;-88
2023/08/03 05:57:42;;;;;;;8.00;2.95;;;;;;;15.86;100.00;99305.41;5017036;28;20464;-88
2023/08/03 06:00:20;;;;;;;11.02;2.80;;;;;;;15.79;100.00;99287.47;5021686;28;20116;-86
2023/08/03 06:02:48;;;;;;;7.45;2.88;;;;;;;15.76;100.00;99309.25;5033666;28;20021;-88
2023/08/03 06:05:38;;;;;;;9.45;2.90;;;;;;;15.84;100.00;99311.94;5033059;28;20112;-87
2023/08/03 06:08:17;;;;;;;6.32;3.00;;;;;;;15.84;100.00;99303.91;5015830;28;20044;-88
2023/08/03 06:10:49;;;;;;;9.70;2.95;;;;;;;15.81;100.00;99315.81;5015635;28;20104;-88
2023/08/03 06:13:20;;;;;;;9.23;2.78;;;;;;;15.86;100.00;99323.34;5014886;28;20493;-88
2023/08/03 06:15:49;;;;;;;9.40;3.58;;;;;;;15.89;100.00;99326.53;5033035;28;20059;-88
2023/08/03 06:18:19;;;;;;;12.70;3.50;;;;;;;15.79;100.00;99306.25;5032606;28;20030;-88
2023/08/03 06:20:47;;;;;;;11.88;3.30;;;;;;;15.88;100.00;99326.69;5032784;28;20029;-89
2023/08/03 06:23:30;;;;;;;11.20;3.17;;;;;;;16.03;100.00;99337.56;5035940;28;20116;-88
2023/08/03 06:25:57;;;;;;;8.82;3.05;;;;;;;15.94;100.00;99341.25;5036240;28;20029;-88
2023/08/03 06:28:23;;;;;;;10.98;3.42;;;;;;;15.72;100.00;99318.66;5018317;28;20079;-88
2023/08/03 06:30:54;;;;;;;16.85;3.90;;;;;;;15.83;100.00;99337.09;5018603;28;20476;-88
2023/08/03 06:33:21;;;;;;;10.45;3.10;;;;;;;15.89;100.00;99347.16;5018232;28;20036;-88
2023/08/03 06:35:48;;;;;;;12.23;3.45;;;;;;;15.90;100.00;99360.38;5018576;28;20050;-87
2023/08/03 06:38:22;;;;;;;9.93;3.58;;;;;;;15.85;100.00;99341.28;5018045;28;20025;-89
2023/08/03 06:40:48;;;;;;;9.95;3.20;;;;;;;15.87;100.00;99349.97;5018375;28;20099;-88
2023/08/03 06:43:16;;;;;;;10.73;3.00;;;;;;;15.88;100.00;99356.19;5035774;28;20053;-87
2023/08/03 06:45:44;;;;;;;8.93;2.88;;;;;;;15.87;100.00;99375.97;5018165;28;20026;-88
2023/08/03 06:48:11;;;;;;;9.70;2.95;;;;;;;15.87;100.00;99367.91;5018098;28;20389;-87
2023/08/03 06:50:39;;;;;;;9.93;3.20;;;;;;;15.90;100.00;99376.47;5018252;28;20116;-89
2023/08/03 06:53:07;;;;;;;7.75;3.30;;;;;;;15.89;100.00;99368.59;5017949;28;20057;-88
2023/08/03 06:55:34;;;;;;;9.68;3.13;;;;;;;15.76;100.00;99362.88;5017613;28;20392;-88
2023/08/03 06:58:05;;;;;;;9.60;2.95;;;;;;;15.92;100.00;99404.97;5018117;28;20056;-87
2023/08/03 07:00:30;;;;;;;9.77;2.88;;;;;;;15.91;100.00;99390.69;5017793;28;20099;-88
2023/08/03 07:02:58;;;;;;;7.90;2.90;;;;;;;15.78;100.00;99360.88;5035676;28;20096;-89
2023/08/03 07:05:23;;;;;;;11.60;3.55;;;;;;;15.98;100.00;99390.88;5017717;28;20028;-87
2023/08/03 07:07:49;;;;;;;9.57;3.03;;;;;;;15.95;100.00;99405.47;5017806;28;20026;-88
2023/08/03 07:10:14;;;;;;;9.15;2.90;;;;;;;16.00;100.00;99418.34;5017435;28;20384;-88
2023/08/03 07:12:42;;;;;;;8.48;2.80;;;;;;;16.05;100.00;99430.25;5018050;28;20060;-88
2023/08/03 07:15:08;;;;;;;9.82;2.78;;;;;;;15.98;100.00;99409.66;5017605;28;20027;-88
2023/08/03 07:17:34;;;;;;;7.85;2.75;;;;;;;16.02;100.00;99421.72;5035254;28;20083;-88
2023/08/03 07:19:59;;;;;;;10.02;2.70;;;;;;;15.99;100.00;99417.53;5017526;28;20437;-89
2023/08/03 07:22:25;;;;;;;6.97;2.40;;;;;;;16.03;100.00;99418.03;5035265;28;20446;-88
2023/08/03 07:24:51;;;;;;;7.63;2.83;;;;;;;15.88;100.00;99380.31;5016840;28;20083;-88
2023/08/03 07:27:17;;;;;;;9.55;2.78;;;;;;;16.10;100.00;99433.28;5017557;28;20056;-88
2023/08/03 07:29:43;;;;;;;9.85;2.38;;;;;;;16.17;100.00;99430.78;5035060;28;20435;-89
2023/08/03 07:32:13;;;;;;;8.43;2.60;;;;;;;16.12;100.00;99428.59;5016931;28;20034;-88
2023/08/03 07:34:43;;;;;;;9.48;2.47;;;;;;;16.25;100.00;99432.63;5017394;28;20028;-87
2023/08/03 07:37:11;;;;;;;10.32;3.10;;;;;;;16.34;100.00;99453.06;5017027;28;20401;-88
2023/08/03 07:39:37;;;;;;;7.32;2.80;;;;;;;16.48;100.00;99455.09;5017038;28;20025;-87
2023/08/03 07:42:05;;;;;;;12.13;3.28;;;;;;;16.57;100.00;99454.06;5016958;28;20083;-87
2023/08/03 07:44:30;;;;;;;10.20;2.97;;;;;;;16.58;100.00;99452.22;5034747;28;20033;-87
2023/08/03 07:46:55;;;;;;;9.52;3.03;;;;;;;16.56;100.00;99459.63;5017050;28;20021;-87
2023/08/03 07:49:21;;;;;;;8.65;2.58;;;;;;;16.43;100.00;99432.44;5016880;28;20025;-88
2023/08/03 07:51:48;;;;;;;8.70;2.65;;;;;;;16.37;100.00;99428.59;5017051;28;20029;-87
2023/08/03 07:54:13;;;;;;;11.52;2.63;;;;;;;16.50;100.00;99461.13;5016546;28;20049;-87
2023/08/03 07:56:39;;;;;;;9.77;2.88;;;;;;;16.50;100.00;99468.31;5017133;28;20099;-86
2023/08/03 07:59:05;;;;;;;8.80;2.90;;;;;;;16.42;100.00;99477.22;5034414;28;20155;-87
2023/08/03 08:01:34;;;;;;;7.53;2.95;;;;;;;16.40;100.00;99484.59;5034596;28;20033;-87
2023/08/03 08:04:01;;;;;;;9.48;2.90;;;;;;;16.42;100.00;99489.81;5016428;28;20108;-87
2023/08/03 08:06:29;;;;;;;10.45;3.03;;;;;;;16.38;100.00;99489.28;5016883;28;20530;-85
2023/08/03 08:08:54;;;;;;;13.63;3.05;;;;;;;16.23;100.00;99510.59;5016210;28;20392;-87
2023/08/03 08:11:20;;;;;;;11.45;2.97;;;;;;;16.21;100.00;99499.19;5016575;28;20025;-86
2023/08/03 08:13:46;;;;;;;14.93;4.05;;;;;;;16.15;100.00;99509.72;5016421;28;20025;-87
2023/08/03 08:16:14;;;;;;;13.27;3.35;;;;;;;16.24;100.00;99522.19;5016503;28;20029;-87
2023/08/03 08:18:40;;;;;;;9.73;3.05;;;;;;;16.24;100.00;99523.00;5034254;28;20384;-87
2023/08/03 08:21:08;;;;;;;9.70;2.70;;;;;;;16.14;100.00;99525.00;5016312;28;20030;-86
2023/08/03 08:23:34;;;;;;;13.18;3.47;;;;;;;16.18;100.00;99509.41;5015722;28;20033;-87
2023/08/03 08:26:02;;;;;;;11.65;3.20;;;;;;;16.16;100.00;99533.72;5016155;28;20029;-87
2023/08/03 08:28:29;;;;;;;12.57;3.42;;;;;;;16.15;100.00;99533.88;5033691;28;20018;-86
2023/08/03 08:30:54;;;;;;;11.70;3.70;;;;;;;16.22;100.00;99554.53;5016150;28;20025;-87
2023/08/03 08:33:21;;;;;;;10.48;3.20;;;;;;;16.06;100.00;99520.47;5033739;28;20033;-87
2023/08/03 08:35:49;;;;;;;11.02;3.10;;;;;;;16.26;100.00;99563.91;5033791;28;20041;-87
2023/08/03 08:38:17;;;;;;;10.20;3.10;;;;;;;16.16;100.00;99559.72;5015983;28;20021;-87
2023/08/03 08:40:47;;;;;;;11.45;3.38;;;;;;;16.21;100.00;99558.22;5033878;28;20489;-87
2023/08/03 08:43:12;;;;;;;;;;;;;;;16.37;100.00;99569.97;5016327;28;20546;-87
2023/08/03 08:45:38;;;;;;;7.45;2.72;;;;;;;16.33;100.00;99558.75;5033253;28;19913;-87
2023/08/03 08:48:05;;;;;;;8.02;2.80;;;;;;;16.32;100.00;99578.50;5033328;28;20025;-87
2023/08/03 08:50:32;;;;;;;7.28;2.70;;;;;;;16.36;100.00;99593.28;5015586;28;20033;-87
2023/08/03 08:52:58;;;;;;;7.90;2.75;;;;;;;16.30;100.00;99586.75;5033466;28;20033;-86
2023/08/03 08:55:25;;;;;;;7.07;2.35;;;;;;;16.25;100.00;99572.97;5015256;28;20045;-87
2023/08/03 08:57:52;;;;;;;5.88;2.33;;;;;;;16.26;100.00;99579.16;5033540;28;20040;-87
2023/08/03 09:00:18;;;;;;;6.80;2.35;;;;;;;16.21;100.00;99586.91;5015507;28;20449;-88
2023/08/03 09:02:47;;;;;;;6.13;2.17;;;;;;;16.31;100.00;99603.66;5033223;28;20029;-87
2023/08/03 09:05:12;;;;;;;6.80;2.10;;;;;;;16.35;100.00;99610.38;5032979;28;20025;-87
2023/08/03 09:07:37;;;;;;;3.42;1.50;;;;;;;16.22;100.00;99596.63;5015827;28;20280;-87
2023/08/03 09:10:04;;;;;;;4.05;1.75;;;;;;;16.24;100.00;99621.44;5032972;28;20366;-88
2023/08/03 09:12:30;;;;;;;5.07;2.08;;;;;;;16.20;100.00;99625.44;5033211;28;20112;-86
2023/08/03 09:14:58;;;;;;;3.75;1.95;;;;;;;16.27;100.00;99629.16;5033314;28;20092;-87
2023/08/03 09:17:24;;;;;;;5.03;2.08;;;;;;;16.15;100.00;99628.63;5033000;28;20032;-88
2023/08/03 09:19:53;;;;;;;3.63;2.10;;;;;;;16.28;100.00;99626.31;5015337;28;20057;-87
2023/08/03 09:22:22;;;;;;;4.10;1.83;;;;;;;16.32;100.00;99635.72;5033143;28;20112;-87
2023/08/03 09:25:08;;;;;;;5.75;1.80;;;;;;;16.36;100.00;99649.66;5015068;28;20103;-88
2023/08/03 09:27:36;;;;;;;4.18;2.00;;;;;;;16.39;100.00;99652.00;5015504;28;20032;-87
2023/08/03 09:30:04;;;;;;;5.72;2.20;;;;;;;16.21;100.00;99633.34;5015216;28;20021;-86
2023/08/03 09:32:31;;;;;;;7.22;2.70;;;;;;;16.33;100.00;99671.44;5033100;28;20071;-88
2023/08/03 09:35:03;;;;;;;5.05;2.42;;;;;;;16.34;100.00;99665.91;5033206;28;20033;-87
2023/08/03 09:37:34;;;;;;;7.60;2.80;;;;;;;16.40;100.00;99680.50;4999302;28;20053;-87
2023/08/03 09:40:01;;;;;;;7.22;2.97;;;;;;;16.39;100.00;99683.38;5032863;28;20060;-88
2023/08/03 09:42:28;;;;;;;10.43;3.17;;;;;;;16.47;100.00;99694.09;5015179;28;20045;-88
2023/08/03 09:44:55;;;;;;;10.48;3.75;;;;;;;16.19;100.00;99655.97;5015179;28;20033;-87
2023/08/03 09:47:21;;;;;;;9.07;3.20;;;;;;;16.50;100.00;99699.16;5015089;28;20085;-87
2023/08/03 09:49:47;;;;;;;9.68;3.80;;;;;;;16.65;100.00;99715.47;5032807;28;20049;-88
2023/08/03 09:52:20;;;;;;;7.95;3.22;;;;;;;16.49;100.00;99692.94;5033007;28;20037;-88
2023/08/03 09:55:00;;;;;;;9.60;3.30;;;;;;;16.69;100.00;99723.03;5015364;28;20064;-88
2023/08/03 09:57:28;;;;;;;;;;;;;;;16.78;100.00;99727.44;5019677;28;20120;-88
2023/08/03 10:00:03;;;;;;;10.73;3.40;;;;;;;16.74;100.00;99736.81;5019348;28;19916;-88
2023/08/03 10:02:33;;;;;;;11.20;3.50;;;;;;;16.64;100.00;99721.84;5019229;28;20025;-88
2023/08/03 10:05:03;;;;;;;9.10;3.40;;;;;;;16.75;100.00;99748.41;5019270;28;20021;-88
2023/08/03 10:07:36;;;;;;;10.88;3.30;;;;;;;16.82;100.00;99753.97;5020441;28;20086;-88
2023/08/03 10:10:04;;;;;;;7.32;3.05;;;;;;;16.87;100.00;99749.81;5019151;28;20056;-87
2023/08/03 10:12:38;;;;;;;10.23;3.35;;;;;;;16.88;100.00;99751.47;5037176;28;20520;-88
2023/08/03 10:15:07;;;;;;;10.07;2.97;;;;;;;17.03;100.00;99767.81;5037033;28;20021;-87
2023/08/03 10:17:36;;;;;;;12.35;3.38;;;;;;;17.15;100.00;99746.84;5019527;28;20461;-87
2023/08/03 10:20:03;;;;;;;7.35;2.88;;;;;;;17.34;100.00;99746.50;5018929;28;20021;-87
2023/08/03 10:22:29;;;;;;;8.43;3.28;;;;;;;17.64;100.00;99761.09;5036582;28;20085;-88
2023/08/03 10:25:17;;;;;;;6.80;2.53;;;;;;;17.80;100.00;99741.47;5018043;28;20404;-88
2023/08/03 10:28:13;;;;;;;6.97;2.50;;;;;;;18.08;100.00;99771.50;5036546;28;20029;-87
2023/08/03 10:31:00;;;;;;;5.25;1.95;;;;;;;18.23;100.00;99771.63;5018349;28;20017;-87
2023/08/03 10:33:49;;;;;;;5.68;2.20;;;;;;;18.22;100.00;99771.81;5036311;28;20037;-87
2023/08/03 10:36:29;;;;;;;3.65;1.92;;;;;;;18.32;100.00;99773.31;5018054;28;20139;-87
2023/08/03 10:39:05;;;;;;;2.97;1.92;;;;;;;18.29;100.00;99775.47;5018027;28;20041;-87
2023/08/03 10:41:36;;;;;;;5.75;2.08;;;;;;;18.30;100.00;99790.63;5018256;28;20124;-87
2023/08/03 10:44:13;;;;;;;6.65;2.58;;;;;;;18.41;100.00;99784.03;5035628;28;20029;-87
2023/08/03 10:46:49;;;;;;;7.35;2.50;;;;;;;18.49;100.00;99795.59;5018360;28;20079;-87
2023/08/03 10:49:20;;;;;;;7.80;2.75;;;;;;;18.61;100.00;99790.69;5035456;28;20025;-87
2023/08/03 10:51:50;;;;;;;10.25;2.50;;;;;;;18.68;100.00;99791.66;5035916;28;20025;-87
2023/08/03 10:54:18;;;;;;;;;;;;;;;18.90;100.00;99798.16;5018170;28;20029;-88
2023/08/03 10:57:04;;;;;;;7.80;2.55;;;;;;;18.87;100.00;99801.19;5035779;28;19936;-87
2023/08/03 10:59:37;;;;;;;7.60;2.53;;;;;;;18.87;100.00;99808.44;5017875;28;20473;-87
2023/08/03 11:02:14;;;;;;;10.43;3.38;;;;;;;18.79;100.00;99812.84;5035626;28;20390;-87
2023/08/03 11:04:40;;;;;;;9.82;3.15;;;;;;;18.53;100.00;99794.25;5017786;28;20029;-87
2023/08/03 11:07:10;;;;;;;9.25;3.15;;;;;;;18.47;100.00;99827.28;5017106;28;20033;-87
2023/08/03 11:09:36;;;;;;;10.05;3.33;;;;;;;18.37;100.00;99815.84;5017266;28;20025;-87
2023/08/03 11:12:09;;;;;;;7.65;2.35;;;;;;;18.54;100.00;99838.19;5035422;28;20113;-86
2023/08/03 11:14:39;;;;;;;7.40;2.83;;;;;;;18.48;100.00;99831.63;5017479;28;20028;-87
2023/08/03 11:17:07;;;;;;;10.00;3.03;;;;;;;18.35;100.00;99818.72;5035506;28;20025;-86
2023/08/03 11:19:38;;;;;;;9.15;3.33;;;;;;;18.34;100.00;99841.25;5017547;28;20025;-88
2023/08/03 11:22:04;;;;;;;8.02;2.97;;;;;;;18.27;100.00;99847.50;5017607;28;20029;-86
2023/08/03 11:24:33;;;;;;;10.38;3.15;;;;;;;18.21;100.00;99842.81;5034772;28;20553;-87